Fivea — 2FNO8 — position and weather

sailwx.info

Track history (hours):
 
Tides and Currents Weather Stations Pressure Air Temp Water Temp Dewpoint Dewpoint Depression Visibility Wind Speed Wind Dir Waves Ship Positions

Fivea

Last reported at 2015-Jul-30 22:33 UTC. Time now 2015-Jul-30 23:04 UTC.
Position N 37°02' E 025°05'.

Length 45 m; draft 3.8 m.

Type: Other ship. MMSI: 235092742.

Date/timePositionNaut miles runAvg speedWind from/ knotsBaromVisibWave heightAir tempDewpointWater temp
2015-Jul-30 22:33N 37°02' E 025°05'0 0.0
2015-Jul-30 21:33N 37°02' E 025°05'0 0.0
2015-Jul-30 20:33N 37°02' E 025°05'0 0.0
2015-Jul-30 19:33N 37°02' E 025°05'0 0.0
2015-Jul-30 18:33N 37°02' E 025°05'0 0.0
2015-Jul-30 17:33N 37°02' E 025°05'0 0.0
2015-Jul-30 16:33N 37°02' E 025°05'2 2.2
2015-Jul-30 15:32N 36°60' E 025°06'1212.4
2015-Jul-30 14:33N 36°55' E 025°20'9 8.7
2015-Jul-30 13:33N 36°52' E 025°31'0 0.0
2015-Jul-30 12:33N 36°52' E 025°31'0 0.0
2015-Jul-30 11:33N 36°52' E 025°31'0 0.0
2015-Jul-30 10:33N 36°52' E 025°31'0 0.0
2015-Jul-30 09:30N 36°52' E 025°31'0 0.0
2015-Jul-30 08:33N 36°52' E 025°31'0 0.0
2015-Jul-30 07:33N 36°52' E 025°31'0 0.0
2015-Jul-30 06:33N 36°52' E 025°31'0 0.0
2015-Jul-30 05:33N 36°52' E 025°31'0 0.0
2015-Jul-30 04:33N 36°52' E 025°31'0 0.0
2015-Jul-30 03:33N 36°52' E 025°31'0 0.0
2015-Jul-30 02:33N 36°52' E 025°31'0 0.0
2015-Jul-30 01:33N 36°52' E 025°31'0 0.0
2015-Jul-30 00:33N 36°52' E 025°31'0 0.0
2015-Jul-29 23:33N 36°52' E 025°31'0 0.0
2015-Jul-29 22:33N 36°52' E 025°31'0 0.0
2015-Jul-29 21:33N 36°52' E 025°31'0 0.0
2015-Jul-29 20:33N 36°52' E 025°31'0 0.0
2015-Jul-29 19:30N 36°52' E 025°31'0 0.0
2015-Jul-29 18:33N 36°52' E 025°31'0 0.0
2015-Jul-29 17:33N 36°52' E 025°31'0 0.0
2015-Jul-29 16:30N 36°52' E 025°31'2 1.7
2015-Jul-29 15:33N 36°51' E 025°31'8 7.7
2015-Jul-29 14:33N 36°51' E 025°40'0 0.0
2015-Jul-29 13:33N 36°51' E 025°40'0 0.0
2015-Jul-29 12:33N 36°51' E 025°40'0 0.0
2015-Jul-29 11:27N 36°51' E 025°40'8 8.8
2015-Jul-29 10:33N 36°59' E 025°41'7 6.7
2015-Jul-29 09:33N 37°05' E 025°42'0 0.0
2015-Jul-29 08:33N 37°05' E 025°42'1 0.9
2015-Jul-29 07:33N 37°05' E 025°41'1212.2
2015-Jul-29 06:33N 36°57' E 025°53'1 0.1
2015-Jul-28 16:33N 36°57' E 025°54'1313.1
2015-Jul-28 15:33N 37°05' E 025°41'1 1.0
2015-Jul-28 14:33N 37°05' E 025°42'0 0.0
2015-Jul-28 13:33N 37°05' E 025°42'0 0.0
2015-Jul-28 12:33N 37°05' E 025°42'0 0.0
2015-Jul-28 11:33N 37°05' E 025°42'0 0.0
2015-Jul-28 10:33N 37°05' E 025°42'0 0.0
2015-Jul-28 09:33N 37°05' E 025°42'0 0.1
2015-Jul-28 08:33N 37°05' E 025°41'5 5.0
2015-Jul-28 07:33N 37°06' E 025°48'0 0.0
2015-Jul-28 06:34N 37°06' E 025°48'0 0.0
2015-Jul-28 05:33N 37°06' E 025°48'0 0.0
2015-Jul-28 04:30N 37°06' E 025°48'0 0.0
2015-Jul-28 03:27N 37°06' E 025°48'0 0.0
2015-Jul-28 02:31N 37°06' E 025°48'0 0.0
2015-Jul-28 01:33N 37°06' E 025°48'0 0.0
2015-Jul-28 00:31N 37°06' E 025°48'0 0.0
2015-Jul-27 23:33N 37°06' E 025°48'0 0.0
2015-Jul-27 22:34N 37°06' E 025°48'0 0.0
2015-Jul-27 21:27N 37°06' E 025°48'0 0.0
2015-Jul-27 20:33N 37°06' E 025°48'0 0.0
2015-Jul-27 19:33N 37°06' E 025°48'0 0.0
2015-Jul-27 18:30N 37°06' E 025°48'0 0.0
2015-Jul-27 17:28N 37°06' E 025°48'0 0.0
2015-Jul-27 16:30N 37°06' E 025°48'0 0.0
2015-Jul-27 15:34N 37°06' E 025°48'0 0.0
2015-Jul-27 14:33N 37°06' E 025°48'0 0.2
2015-Jul-27 13:32N 37°06' E 025°48'2 2.1
2015-Jul-27 12:32N 37°08' E 025°49'0 0.0
2015-Jul-27 11:29N 37°08' E 025°49'0 0.0
2015-Jul-27 10:29N 37°08' E 025°49'0 0.0
2015-Jul-27 09:32N 37°08' E 025°49'0 0.0
2015-Jul-27 07:32N 37°08' E 025°49'0 0.0
2015-Jul-27 06:29N 37°08' E 025°49'0 0.0
2015-Jul-27 05:32N 37°08' E 025°49'0 0.0
2015-Jul-27 04:32N 37°08' E 025°49'0 0.0
2015-Jul-27 03:32N 37°08' E 025°49'0 0.0
2015-Jul-27 02:32N 37°08' E 025°49'0 0.0
2015-Jul-27 01:32N 37°08' E 025°49'0 0.0
2015-Jul-27 00:32N 37°08' E 025°49'0 0.0
2015-Jul-26 23:32N 37°08' E 025°49'0 0.0
2015-Jul-26 22:32N 37°08' E 025°49'0 0.0
2015-Jul-26 21:32N 37°08' E 025°49'0 0.0
2015-Jul-26 20:32N 37°08' E 025°49'0 0.0
2015-Jul-26 19:29N 37°08' E 025°49'0 0.0
2015-Jul-26 18:32N 37°08' E 025°49'0 0.0
2015-Jul-26 17:32N 37°08' E 025°49'0 0.0
2015-Jul-26 16:32N 37°08' E 025°49'0 0.0
2015-Jul-26 15:32N 37°08' E 025°49'0 0.0
2015-Jul-26 14:32N 37°08' E 025°49'0 0.0
2015-Jul-26 13:29N 37°08' E 025°49'0 0.0
2015-Jul-26 12:32N 37°08' E 025°49'0 0.0
2015-Jul-26 11:32N 37°08' E 025°49'6 6.2
2015-Jul-26 10:33N 37°02' E 025°45'1111.4
2015-Jul-26 09:33N 36°57' E 025°33'1111.1
2015-Jul-26 08:32N 36°56' E 025°19'1211.4
2015-Jul-26 07:30N 37°01' E 025°06'1 1.2
2015-Jul-26 06:32N 37°02' E 025°05'0 0.0
2015-Jul-26 05:32N 37°02' E 025°05'0 0.0
2015-Jul-26 04:32N 37°02' E 025°05'0 0.0
2015-Jul-26 03:32N 37°02' E 025°05'0 0.0
2015-Jul-26 02:32N 37°02' E 025°05'0 0.0
2015-Jul-26 01:32N 37°02' E 025°05'0 0.0
2015-Jul-26 00:32N 37°02' E 025°05'0 0.0
2015-Jul-25 23:32N 37°02' E 025°05'0 0.0
2015-Jul-25 22:32N 37°02' E 025°05'0 0.0
2015-Jul-25 21:32N 37°02' E 025°05'0 0.0
2015-Jul-25 20:32N 37°02' E 025°05'0 0.0
2015-Jul-25 19:32N 37°02' E 025°05'0 0.0
2015-Jul-25 18:32N 37°02' E 025°05'0 0.0
2015-Jul-25 17:32N 37°02' E 025°05'0 0.0
2015-Jul-25 16:32N 37°02' E 025°05'0 0.0
2015-Jul-25 15:32N 37°02' E 025°05'0 0.0
2015-Jul-25 14:32N 37°02' E 025°05'0 0.0
2015-Jul-25 13:32N 37°02' E 025°05'0 0.0
2015-Jul-25 12:32N 37°02' E 025°05'0 0.0
2015-Jul-25 11:32N 37°02' E 025°05'0 0.0
2015-Jul-25 10:32N 37°02' E 025°05'0 0.0
2015-Jul-25 09:32N 37°02' E 025°05'0 0.0
2015-Jul-25 08:32N 37°02' E 025°05'0 0.0
2015-Jul-25 07:32N 37°02' E 025°05'0 0.0
2015-Jul-25 06:32N 37°02' E 025°05'0 0.0
2015-Jul-25 05:32N 37°02' E 025°05'0 0.0
2015-Jul-25 04:32N 37°02' E 025°05'0 0.0
2015-Jul-25 03:32N 37°02' E 025°05'0 0.0
2015-Jul-25 02:32N 37°02' E 025°05'0 0.0
2015-Jul-25 01:32N 37°02' E 025°05'0 0.0
2015-Jul-25 00:29N 37°02' E 025°05'0 0.0
2015-Jul-24 23:32N 37°02' E 025°05'0 0.0
2015-Jul-24 22:32N 37°02' E 025°05'0 0.0
2015-Jul-24 21:32N 37°02' E 025°05'0 0.0
2015-Jul-24 20:32N 37°02' E 025°05'0 0.0
2015-Jul-24 19:32N 37°02' E 025°05'0 0.0
2015-Jul-24 18:32N 37°02' E 025°05'0 0.0
2015-Jul-24 17:32N 37°02' E 025°05'3 3.1
2015-Jul-24 16:30N 36°59' E 025°06'1 0.5
2015-Jul-24 15:20N 36°59' E 025°07'0 0.0
2015-Jul-24 13:17N 36°59' E 025°07'0 0.0
2015-Jul-24 09:14N 36°59' E 025°07'4 5.1
2015-Jul-24 08:31N 37°02' E 025°05'0 0.0
2015-Jul-24 07:31N 37°02' E 025°05'0 0.0
2015-Jul-24 06:31N 37°02' E 025°05'0 0.0
2015-Jul-24 05:31N 37°02' E 025°05'0 0.0
2015-Jul-24 04:28N 37°02' E 025°05'0 0.0
2015-Jul-24 03:31N 37°02' E 025°05'0 0.0
2015-Jul-24 02:31N 37°02' E 025°05'0 0.0
2015-Jul-24 01:31N 37°02' E 025°05'0 0.0
2015-Jul-24 00:31N 37°02' E 025°05'0 0.0
2015-Jul-23 23:31N 37°02' E 025°05'0 0.0
2015-Jul-23 22:31N 37°02' E 025°05'0 0.0
2015-Jul-23 21:31N 37°02' E 025°05'0 0.0
2015-Jul-23 20:31N 37°02' E 025°05'0 0.0
2015-Jul-23 19:31N 37°02' E 025°05'0 0.0
2015-Jul-23 18:31N 37°02' E 025°05'0 0.0
2015-Jul-23 17:31N 37°02' E 025°05'0 0.0
2015-Jul-23 16:28N 37°02' E 025°05'0 0.0
2015-Jul-23 15:31N 37°02' E 025°05'0 0.0
2015-Jul-23 14:31N 37°02' E 025°05'0 0.0
2015-Jul-23 13:28N 37°02' E 025°05'0 0.0
2015-Jul-23 12:31N 37°02' E 025°05'0 0.0
2015-Jul-23 11:31N 37°02' E 025°05'0 0.0
2015-Jul-23 10:28N 37°02' E 025°05'0 0.0
2015-Jul-23 09:31N 37°02' E 025°05'0 0.0
2015-Jul-23 08:31N 37°02' E 025°05'0 0.0
2015-Jul-23 07:31N 37°02' E 025°05'0 0.0
2015-Jul-23 06:31N 37°02' E 025°05'0 0.0
2015-Jul-23 05:31N 37°02' E 025°05'0 0.0
2015-Jul-23 04:31N 37°02' E 025°05'0 0.0
2015-Jul-23 03:31N 37°02' E 025°05'0 0.0
2015-Jul-23 02:31N 37°02' E 025°05'0 0.0
2015-Jul-23 01:28N 37°02' E 025°05'0 0.0
2015-Jul-23 00:31N 37°02' E 025°05'0 0.0
2015-Jul-22 23:31N 37°02' E 025°05'0 0.0
2015-Jul-22 22:31N 37°02' E 025°05'0 0.0
2015-Jul-22 21:31N 37°02' E 025°05'0 0.0
2015-Jul-22 20:31N 37°02' E 025°05'0 0.0
2015-Jul-22 19:31N 37°02' E 025°05'0 0.0
2015-Jul-22 18:31N 37°02' E 025°05'0 0.0
2015-Jul-22 17:31N 37°02' E 025°05'0 0.0
2015-Jul-22 16:31N 37°02' E 025°05'0 0.0
2015-Jul-22 15:31N 37°02' E 025°05'0 0.0
2015-Jul-22 14:31N 37°02' E 025°05'0 0.0
2015-Jul-22 13:31N 37°02' E 025°05'0 0.0
2015-Jul-22 12:31N 37°02' E 025°05'0 0.0
2015-Jul-22 11:31N 37°02' E 025°05'0 0.0
2015-Jul-22 10:31N 37°02' E 025°05'0 0.0
2015-Jul-22 09:31N 37°02' E 025°05'0 0.0
2015-Jul-22 08:28N 37°02' E 025°05'0 0.0
2015-Jul-22 07:28N 37°02' E 025°05'0 0.0
2015-Jul-22 06:31N 37°02' E 025°05'0 0.0
2015-Jul-22 05:31N 37°02' E 025°05'0 0.0
2015-Jul-22 04:31N 37°02' E 025°05'0 0.0
2015-Jul-22 03:28N 37°02' E 025°05'0 0.0
2015-Jul-22 02:31N 37°02' E 025°05'0 0.0
2015-Jul-22 01:31N 37°02' E 025°05'0 0.0
2015-Jul-22 00:31N 37°02' E 025°05'0 0.0
2015-Jul-21 23:31N 37°02' E 025°05'0 0.0
2015-Jul-21 22:31N 37°02' E 025°05'0 0.0
2015-Jul-21 21:31N 37°02' E 025°05'0 0.0
2015-Jul-21 20:31N 37°02' E 025°05'0 0.0
2015-Jul-21 19:31N 37°02' E 025°05'0 0.0
2015-Jul-21 18:31N 37°02' E 025°05'0 0.0
2015-Jul-21 17:28N 37°02' E 025°05'0 0.0
2015-Jul-21 16:28N 37°02' E 025°05'0 0.0
2015-Jul-21 15:31N 37°02' E 025°05'0 0.0
2015-Jul-21 14:31N 37°02' E 025°05'0 0.0
2015-Jul-21 13:31N 37°02' E 025°05'0 0.0
2015-Jul-21 12:31N 37°02' E 025°05'0 0.0
2015-Jul-21 11:28N 37°02' E 025°05'0 0.0
2015-Jul-21 10:31N 37°02' E 025°05'0 0.0
2015-Jul-21 09:28N 37°02' E 025°05'0 0.0
2015-Jul-21 08:31N 37°02' E 025°05'0 0.0
2015-Jul-21 07:28N 37°02' E 025°05'0 0.0
2015-Jul-21 06:31N 37°02' E 025°05'0 0.0
2015-Jul-21 05:31N 37°02' E 025°05'0 0.0
2015-Jul-21 04:31N 37°02' E 025°05'0 0.0
2015-Jul-21 03:31N 37°02' E 025°05'0 0.0
2015-Jul-21 02:31N 37°02' E 025°05'0 0.0
2015-Jul-21 01:31N 37°02' E 025°05'0 0.0
2015-Jul-21 00:31N 37°02' E 025°05'0 0.0
2015-Jul-20 23:31N 37°02' E 025°05'  
Track history (hours):
 
Tides and Currents Weather Stations Pressure Air Temp Water Temp Dewpoint Dewpoint Depression Visibility Wind Speed Wind Dir Waves Ship Positions

Fivea

Last reported at 2015-Jul-30 22:33 UTC. Time now 2015-Jul-30 23:04 UTC.
Position N 37°02' E 025°05'.

Length 45 m; draft 3.8 m.

Type: Other ship. MMSI: 235092742.

Date/timePositionNaut miles runAvg speedWind from/ knotsBaromVisibWave heightAir tempDewpointWater temp
2015-Jul-30 22:33N 37°02' E 025°05'0 0.0
2015-Jul-30 21:33N 37°02' E 025°05'0 0.0
2015-Jul-30 20:33N 37°02' E 025°05'0 0.0
2015-Jul-30 19:33N 37°02' E 025°05'0 0.0
2015-Jul-30 18:33N 37°02' E 025°05'0 0.0
2015-Jul-30 17:33N 37°02' E 025°05'0 0.0
2015-Jul-30 16:33N 37°02' E 025°05'2 2.2
2015-Jul-30 15:32N 36°60' E 025°06'1212.4
2015-Jul-30 14:33N 36°55' E 025°20'9 8.7
2015-Jul-30 13:33N 36°52' E 025°31'0 0.0
2015-Jul-30 12:33N 36°52' E 025°31'0 0.0
2015-Jul-30 11:33N 36°52' E 025°31'0 0.0
2015-Jul-30 10:33N 36°52' E 025°31'0 0.0
2015-Jul-30 09:30N 36°52' E 025°31'0 0.0
2015-Jul-30 08:33N 36°52' E 025°31'0 0.0
2015-Jul-30 07:33N 36°52' E 025°31'0 0.0
2015-Jul-30 06:33N 36°52' E 025°31'0 0.0
2015-Jul-30 05:33N 36°52' E 025°31'0 0.0
2015-Jul-30 04:33N 36°52' E 025°31'0 0.0
2015-Jul-30 03:33N 36°52' E 025°31'0 0.0
2015-Jul-30 02:33N 36°52' E 025°31'0 0.0
2015-Jul-30 01:33N 36°52' E 025°31'0 0.0
2015-Jul-30 00:33N 36°52' E 025°31'0 0.0
2015-Jul-29 23:33N 36°52' E 025°31'0 0.0
2015-Jul-29 22:33N 36°52' E 025°31'0 0.0
2015-Jul-29 21:33N 36°52' E 025°31'0 0.0
2015-Jul-29 20:33N 36°52' E 025°31'0 0.0
2015-Jul-29 19:30N 36°52' E 025°31'0 0.0
2015-Jul-29 18:33N 36°52' E 025°31'0 0.0
2015-Jul-29 17:33N 36°52' E 025°31'0 0.0
2015-Jul-29 16:30N 36°52' E 025°31'2 1.7
2015-Jul-29 15:33N 36°51' E 025°31'8 7.7
2015-Jul-29 14:33N 36°51' E 025°40'0 0.0
2015-Jul-29 13:33N 36°51' E 025°40'0 0.0
2015-Jul-29 12:33N 36°51' E 025°40'0 0.0
2015-Jul-29 11:27N 36°51' E 025°40'8 8.8
2015-Jul-29 10:33N 36°59' E 025°41'7 6.7
2015-Jul-29 09:33N 37°05' E 025°42'0 0.0
2015-Jul-29 08:33N 37°05' E 025°42'1 0.9
2015-Jul-29 07:33N 37°05' E 025°41'1212.2
2015-Jul-29 06:33N 36°57' E 025°53'1 0.1
2015-Jul-28 16:33N 36°57' E 025°54'1313.1
2015-Jul-28 15:33N 37°05' E 025°41'1 1.0
2015-Jul-28 14:33N 37°05' E 025°42'0 0.0
2015-Jul-28 13:33N 37°05' E 025°42'0 0.0
2015-Jul-28 12:33N 37°05' E 025°42'0 0.0
2015-Jul-28 11:33N 37°05' E 025°42'0 0.0
2015-Jul-28 10:33N 37°05' E 025°42'0 0.0
2015-Jul-28 09:33N 37°05' E 025°42'0 0.1
2015-Jul-28 08:33N 37°05' E 025°41'5 5.0
2015-Jul-28 07:33N 37°06' E 025°48'0 0.0
2015-Jul-28 06:34N 37°06' E 025°48'0 0.0
2015-Jul-28 05:33N 37°06' E 025°48'0 0.0
2015-Jul-28 04:30N 37°06' E 025°48'0 0.0
2015-Jul-28 03:27N 37°06' E 025°48'0 0.0
2015-Jul-28 02:31N 37°06' E 025°48'0 0.0
2015-Jul-28 01:33N 37°06' E 025°48'0 0.0
2015-Jul-28 00:31N 37°06' E 025°48'0 0.0
2015-Jul-27 23:33N 37°06' E 025°48'0 0.0
2015-Jul-27 22:34N 37°06' E 025°48'0 0.0
2015-Jul-27 21:27N 37°06' E 025°48'0 0.0
2015-Jul-27 20:33N 37°06' E 025°48'0 0.0
2015-Jul-27 19:33N 37°06' E 025°48'0 0.0
2015-Jul-27 18:30N 37°06' E 025°48'0 0.0
2015-Jul-27 17:28N 37°06' E 025°48'0 0.0
2015-Jul-27 16:30N 37°06' E 025°48'0 0.0
2015-Jul-27 15:34N 37°06' E 025°48'0 0.0
2015-Jul-27 14:33N 37°06' E 025°48'0 0.2
2015-Jul-27 13:32N 37°06' E 025°48'2 2.1
2015-Jul-27 12:32N 37°08' E 025°49'0 0.0
2015-Jul-27 11:29N 37°08' E 025°49'0 0.0
2015-Jul-27 10:29N 37°08' E 025°49'0 0.0
2015-Jul-27 09:32N 37°08' E 025°49'0 0.0
2015-Jul-27 07:32N 37°08' E 025°49'0 0.0
2015-Jul-27 06:29N 37°08' E 025°49'0 0.0
2015-Jul-27 05:32N 37°08' E 025°49'0 0.0
2015-Jul-27 04:32N 37°08' E 025°49'0 0.0
2015-Jul-27 03:32N 37°08' E 025°49'0 0.0
2015-Jul-27 02:32N 37°08' E 025°49'0 0.0
2015-Jul-27 01:32N 37°08' E 025°49'0 0.0
2015-Jul-27 00:32N 37°08' E 025°49'0 0.0
2015-Jul-26 23:32N 37°08' E 025°49'0 0.0
2015-Jul-26 22:32N 37°08' E 025°49'0 0.0
2015-Jul-26 21:32N 37°08' E 025°49'0 0.0
2015-Jul-26 20:32N 37°08' E 025°49'0 0.0
2015-Jul-26 19:29N 37°08' E 025°49'0 0.0
2015-Jul-26 18:32N 37°08' E 025°49'0 0.0
2015-Jul-26 17:32N 37°08' E 025°49'0 0.0
2015-Jul-26 16:32N 37°08' E 025°49'0 0.0
2015-Jul-26 15:32N 37°08' E 025°49'0 0.0
2015-Jul-26 14:32N 37°08' E 025°49'0 0.0
2015-Jul-26 13:29N 37°08' E 025°49'0 0.0
2015-Jul-26 12:32N 37°08' E 025°49'0 0.0
2015-Jul-26 11:32N 37°08' E 025°49'6 6.2
2015-Jul-26 10:33N 37°02' E 025°45'1111.4
2015-Jul-26 09:33N 36°57' E 025°33'1111.1
2015-Jul-26 08:32N 36°56' E 025°19'1211.4
2015-Jul-26 07:30N 37°01' E 025°06'1 1.2
2015-Jul-26 06:32N 37°02' E 025°05'0 0.0
2015-Jul-26 05:32N 37°02' E 025°05'0 0.0
2015-Jul-26 04:32N 37°02' E 025°05'0 0.0
2015-Jul-26 03:32N 37°02' E 025°05'0 0.0
2015-Jul-26 02:32N 37°02' E 025°05'0 0.0
2015-Jul-26 01:32N 37°02' E 025°05'0 0.0
2015-Jul-26 00:32N 37°02' E 025°05'0 0.0
2015-Jul-25 23:32N 37°02' E 025°05'0 0.0
2015-Jul-25 22:32N 37°02' E 025°05'0 0.0
2015-Jul-25 21:32N 37°02' E 025°05'0 0.0
2015-Jul-25 20:32N 37°02' E 025°05'0 0.0
2015-Jul-25 19:32N 37°02' E 025°05'0 0.0
2015-Jul-25 18:32N 37°02' E 025°05'0 0.0
2015-Jul-25 17:32N 37°02' E 025°05'0 0.0
2015-Jul-25 16:32N 37°02' E 025°05'0 0.0
2015-Jul-25 15:32N 37°02' E 025°05'0 0.0
2015-Jul-25 14:32N 37°02' E 025°05'0 0.0
2015-Jul-25 13:32N 37°02' E 025°05'0 0.0
2015-Jul-25 12:32N 37°02' E 025°05'0 0.0
2015-Jul-25 11:32N 37°02' E 025°05'0 0.0
2015-Jul-25 10:32N 37°02' E 025°05'0 0.0
2015-Jul-25 09:32N 37°02' E 025°05'0 0.0
2015-Jul-25 08:32N 37°02' E 025°05'0 0.0
2015-Jul-25 07:32N 37°02' E 025°05'0 0.0
2015-Jul-25 06:32N 37°02' E 025°05'0 0.0
2015-Jul-25 05:32N 37°02' E 025°05'0 0.0
2015-Jul-25 04:32N 37°02' E 025°05'0 0.0
2015-Jul-25 03:32N 37°02' E 025°05'0 0.0
2015-Jul-25 02:32N 37°02' E 025°05'0 0.0
2015-Jul-25 01:32N 37°02' E 025°05'0 0.0
2015-Jul-25 00:29N 37°02' E 025°05'0 0.0
2015-Jul-24 23:32N 37°02' E 025°05'0 0.0
2015-Jul-24 22:32N 37°02' E 025°05'0 0.0
2015-Jul-24 21:32N 37°02' E 025°05'0 0.0
2015-Jul-24 20:32N 37°02' E 025°05'0 0.0
2015-Jul-24 19:32N 37°02' E 025°05'0 0.0
2015-Jul-24 18:32N 37°02' E 025°05'0 0.0
2015-Jul-24 17:32N 37°02' E 025°05'3 3.1
2015-Jul-24 16:30N 36°59' E 025°06'1 0.5
2015-Jul-24 15:20N 36°59' E 025°07'0 0.0
2015-Jul-24 13:17N 36°59' E 025°07'0 0.0
2015-Jul-24 09:14N 36°59' E 025°07'4 5.1
2015-Jul-24 08:31N 37°02' E 025°05'0 0.0
2015-Jul-24 07:31N 37°02' E 025°05'0 0.0
2015-Jul-24 06:31N 37°02' E 025°05'0 0.0
2015-Jul-24 05:31N 37°02' E 025°05'0 0.0
2015-Jul-24 04:28N 37°02' E 025°05'0 0.0
2015-Jul-24 03:31N 37°02' E 025°05'0 0.0
2015-Jul-24 02:31N 37°02' E 025°05'0 0.0
2015-Jul-24 01:31N 37°02' E 025°05'0 0.0
2015-Jul-24 00:31N 37°02' E 025°05'0 0.0
2015-Jul-23 23:31N 37°02' E 025°05'0 0.0
2015-Jul-23 22:31N 37°02' E 025°05'0 0.0
2015-Jul-23 21:31N 37°02' E 025°05'0 0.0
2015-Jul-23 20:31N 37°02' E 025°05'0 0.0
2015-Jul-23 19:31N 37°02' E 025°05'0 0.0
2015-Jul-23 18:31N 37°02' E 025°05'0 0.0
2015-Jul-23 17:31N 37°02' E 025°05'0 0.0
2015-Jul-23 16:28N 37°02' E 025°05'0 0.0
2015-Jul-23 15:31N 37°02' E 025°05'0 0.0
2015-Jul-23 14:31N 37°02' E 025°05'0 0.0
2015-Jul-23 13:28N 37°02' E 025°05'0 0.0
2015-Jul-23 12:31N 37°02' E 025°05'0 0.0
2015-Jul-23 11:31N 37°02' E 025°05'0 0.0
2015-Jul-23 10:28N 37°02' E 025°05'0 0.0
2015-Jul-23 09:31N 37°02' E 025°05'0 0.0
2015-Jul-23 08:31N 37°02' E 025°05'0 0.0
2015-Jul-23 07:31N 37°02' E 025°05'0 0.0
2015-Jul-23 06:31N 37°02' E 025°05'0 0.0
2015-Jul-23 05:31N 37°02' E 025°05'0 0.0
2015-Jul-23 04:31N 37°02' E 025°05'0 0.0
2015-Jul-23 03:31N 37°02' E 025°05'0 0.0
2015-Jul-23 02:31N 37°02' E 025°05'0 0.0
2015-Jul-23 01:28N 37°02' E 025°05'0 0.0
2015-Jul-23 00:31N 37°02' E 025°05'0 0.0
2015-Jul-22 23:31N 37°02' E 025°05'0 0.0
2015-Jul-22 22:31N 37°02' E 025°05'0 0.0
2015-Jul-22 21:31N 37°02' E 025°05'0 0.0
2015-Jul-22 20:31N 37°02' E 025°05'0 0.0
2015-Jul-22 19:31N 37°02' E 025°05'0 0.0
2015-Jul-22 18:31N 37°02' E 025°05'0 0.0
2015-Jul-22 17:31N 37°02' E 025°05'0 0.0
2015-Jul-22 16:31N 37°02' E 025°05'0 0.0
2015-Jul-22 15:31N 37°02' E 025°05'0 0.0
2015-Jul-22 14:31N 37°02' E 025°05'0 0.0
2015-Jul-22 13:31N 37°02' E 025°05'0 0.0
2015-Jul-22 12:31N 37°02' E 025°05'0 0.0
2015-Jul-22 11:31N 37°02' E 025°05'0 0.0
2015-Jul-22 10:31N 37°02' E 025°05'0 0.0
2015-Jul-22 09:31N 37°02' E 025°05'0 0.0
2015-Jul-22 08:28N 37°02' E 025°05'0 0.0
2015-Jul-22 07:28N 37°02' E 025°05'0 0.0
2015-Jul-22 06:31N 37°02' E 025°05'0 0.0
2015-Jul-22 05:31N 37°02' E 025°05'0 0.0
2015-Jul-22 04:31N 37°02' E 025°05'0 0.0
2015-Jul-22 03:28N 37°02' E 025°05'0 0.0
2015-Jul-22 02:31N 37°02' E 025°05'0 0.0
2015-Jul-22 01:31N 37°02' E 025°05'0 0.0
2015-Jul-22 00:31N 37°02' E 025°05'0 0.0
2015-Jul-21 23:31N 37°02' E 025°05'0 0.0
2015-Jul-21 22:31N 37°02' E 025°05'0 0.0
2015-Jul-21 21:31N 37°02' E 025°05'0 0.0
2015-Jul-21 20:31N 37°02' E 025°05'0 0.0
2015-Jul-21 19:31N 37°02' E 025°05'0 0.0
2015-Jul-21 18:31N 37°02' E 025°05'0 0.0
2015-Jul-21 17:28N 37°02' E 025°05'0 0.0
2015-Jul-21 16:28N 37°02' E 025°05'0 0.0
2015-Jul-21 15:31N 37°02' E 025°05'0 0.0
2015-Jul-21 14:31N 37°02' E 025°05'0 0.0
2015-Jul-21 13:31N 37°02' E 025°05'0 0.0
2015-Jul-21 12:31N 37°02' E 025°05'0 0.0
2015-Jul-21 11:28N 37°02' E 025°05'0 0.0
2015-Jul-21 10:31N 37°02' E 025°05'0 0.0
2015-Jul-21 09:28N 37°02' E 025°05'0 0.0
2015-Jul-21 08:31N 37°02' E 025°05'0 0.0
2015-Jul-21 07:28N 37°02' E 025°05'0 0.0
2015-Jul-21 06:31N 37°02' E 025°05'0 0.0
2015-Jul-21 05:31N 37°02' E 025°05'0 0.0
2015-Jul-21 04:31N 37°02' E 025°05'0 0.0
2015-Jul-21 03:31N 37°02' E 025°05'0 0.0
2015-Jul-21 02:31N 37°02' E 025°05'0 0.0
2015-Jul-21 01:31N 37°02' E 025°05'0 0.0
2015-Jul-21 00:31N 37°02' E 025°05'0 0.0
2015-Jul-20 23:31N 37°02' E 025°05'  

Dump ship's entire track history